Airfield :
LOGIN :

Register | Disclaimer

   EN    FR    IT 

 










Legend :    VFR   Marginal VFR   IFR   Intensive IFR   Very Intensive IFR
Visi :
Ceiling :
>= 8 km
>= 3000ft
5 to 8 km
1000 to 3000 ft
1500m to 5 km
500 to 1000 ft
800 to 1500m
200 to 500 ft
< 800m
< 200 ft
Symbols :   Thunderstorms  Fog  Heavy snow  Heavy precipitations  Wind > 20 kt
SIGMETs :     Misc.  Thunderstorms  Icing  Turbulence  Mountain Waves  Volcanic Ashes







- Airport Elevation : 463 ft
- IATA code : SZY
- AIRPORT CLOSED.


EPSY - Szczytno

CURRENT METAR :
  • 231530Z 26011G22KT 230V300 9999 -RA BKN013 OVC028 08/06 Q0994 RERA

EXPIRED METARs :
  • 231500Z 26011KT 220V290 5000 RA BR BKN010 OVC020 07/06 Q0994
  • 231430Z 25012G22KT 9999 -RA BKN009 OVC019 07/06 Q0994
  • 231400Z 24015G25KT 200V270 9999 -RA BKN008 OVC015 07/06 Q0995
  • 231330Z 24015G26KT 7000 -RA BKN007 OVC015 07/05 Q0996 RERA
  • 231300Z 23015KT 200V270 6000 RA BKN008 OVC016 06/05 Q0997

TAF TAF EPSY
Valid from the 23 at 15:00 until the 24 at 00:00 UTC


231430Z 2315/2324 25010KT 9999 BKN015
TEMPO 2315/2320 25015G25KT 5000 SHRA BKN010 BKN014CB
No reported NOTAMs for that airfield.
1 SIGMET reported for the Warszawa FIR (EPWW) :
 
Severe turbulence
EPWW SIGMET 2 VALID 231155/231555 EPWA
EPWW WARSAW FIR SEV TURB FCST N OF LINE N5020 E02350 - N5030 E01600 SFC/FL100 MOV ESE NC=



MET'MAP, your aeronautical weather chart ! - Copyright ORBIFLY December 2007 - Disclaimer

ORBIFLY MET'MAP TEAM :

Programming & Development : Alexandra Zaïnal
Concept & Development : Baudouin d'Aumeries
Co-Development & Prog : Marc-Olivier Méhu
Technical & hardware support : Manuel Goepfert

Contact : metmap@orbifly.com




SOURCES & CREDITS :

   NOAA